sensor_id;sensor_type;location;lat;lon;timestamp;P1;durP1;ratioP1;P2;durP2;ratioP2
59161;SDS011;44942;48.936;8.260;2023-10-19T00:03:16;3.45;;;3.15;;
59161;SDS011;44942;48.936;8.260;2023-10-19T00:08:18;3.50;;;3.20;;
59161;SDS011;44942;48.936;8.260;2023-10-19T00:13:21;3.45;;;3.03;;
59161;SDS011;44942;48.936;8.260;2023-10-19T00:18:22;3.60;;;3.30;;
59161;SDS011;44942;48.936;8.260;2023-10-19T00:23:24;3.53;;;3.22;;
59161;SDS011;44942;48.936;8.260;2023-10-19T00:28:36;3.78;;;3.03;;
59161;SDS011;44942;48.936;8.260;2023-10-19T00:33:39;4.07;;;3.10;;
59161;SDS011;44942;48.936;8.260;2023-10-19T00:38:41;3.53;;;3.15;;
59161;SDS011;44942;48.936;8.260;2023-10-19T00:43:56;3.47;;;3.17;;
59161;SDS011;44942;48.936;8.260;2023-10-19T00:49:03;3.40;;;3.10;;
59161;SDS011;44942;48.936;8.260;2023-10-19T00:59:15;4.07;;;3.25;;
59161;SDS011;44942;48.936;8.260;2023-10-19T01:04:24;3.90;;;3.28;;
59161;SDS011;44942;48.936;8.260;2023-10-19T01:09:32;3.60;;;3.30;;
59161;SDS011;44942;48.936;8.260;2023-10-19T01:14:36;3.25;;;2.95;;
59161;SDS011;44942;48.936;8.260;2023-10-19T01:19:37;3.80;;;3.17;;
59161;SDS011;44942;48.936;8.260;2023-10-19T01:24:37;3.50;;;3.20;;
59161;SDS011;44942;48.936;8.260;2023-10-19T01:29:41;3.47;;;2.83;;
59161;SDS011;44942;48.936;8.260;2023-10-19T01:39:43;3.37;;;3.07;;
59161;SDS011;44942;48.936;8.260;2023-10-19T01:44:45;3.42;;;3.13;;
59161;SDS011;44942;48.936;8.260;2023-10-19T01:49:46;3.53;;;3.03;;
59161;SDS011;44942;48.936;8.260;2023-10-19T01:54:52;3.47;;;3.15;;
59161;SDS011;44942;48.936;8.260;2023-10-19T01:59:58;3.20;;;2.90;;
59161;SDS011;44942;48.936;8.260;2023-10-19T02:04:59;4.23;;;3.17;;
59161;SDS011;44942;48.936;8.260;2023-10-19T02:10:00;3.10;;;2.80;;
59161;SDS011;44942;48.936;8.260;2023-10-19T02:15:01;3.47;;;3.17;;
59161;SDS011;44942;48.936;8.260;2023-10-19T02:20:01;3.40;;;3.10;;
59161;SDS011;44942;48.936;8.260;2023-10-19T02:25:13;3.28;;;2.70;;
59161;SDS011;44942;48.936;8.260;2023-10-19T02:30:14;5.13;;;2.90;;
59161;SDS011;44942;48.936;8.260;2023-10-19T02:35:15;3.25;;;2.92;;
59161;SDS011;44942;48.936;8.260;2023-10-19T02:40:15;3.53;;;2.67;;
59161;SDS011;44942;48.936;8.260;2023-10-19T02:45:19;4.25;;;2.83;;
59161;SDS011;44942;48.936;8.260;2023-10-19T02:50:20;3.00;;;2.70;;
59161;SDS011;44942;48.936;8.260;2023-10-19T02:55:23;3.70;;;2.97;;
59161;SDS011;44942;48.936;8.260;2023-10-19T03:00:27;5.65;;;2.97;;
59161;SDS011;44942;48.936;8.260;2023-10-19T03:05:32;2.83;;;2.60;;
59161;SDS011;44942;48.936;8.260;2023-10-19T03:10:34;3.50;;;3.17;;
59161;SDS011;44942;48.936;8.260;2023-10-19T03:15:42;2.83;;;2.63;;
59161;SDS011;44942;48.936;8.260;2023-10-19T03:20:43;3.00;;;2.70;;
59161;SDS011;44942;48.936;8.260;2023-10-19T03:25:43;3.13;;;2.80;;
59161;SDS011;44942;48.936;8.260;2023-10-19T03:31:04;3.05;;;2.75;;
59161;SDS011;44942;48.936;8.260;2023-10-19T03:36:04;3.20;;;2.90;;
59161;SDS011;44942;48.936;8.260;2023-10-19T03:41:05;6.18;;;2.83;;
59161;SDS011;44942;48.936;8.260;2023-10-19T03:46:07;3.00;;;2.70;;
59161;SDS011;44942;48.936;8.260;2023-10-19T03:51:26;3.40;;;2.70;;
59161;SDS011;44942;48.936;8.260;2023-10-19T03:56:27;3.20;;;2.70;;
59161;SDS011;44942;48.936;8.260;2023-10-19T04:01:32;4.13;;;3.00;;
59161;SDS011;44942;48.936;8.260;2023-10-19T04:06:33;3.17;;;2.67;;
59161;SDS011;44942;48.936;8.260;2023-10-19T04:11:33;2.97;;;2.67;;
59161;SDS011;44942;48.936;8.260;2023-10-19T04:16:48;2.60;;;2.40;;
59161;SDS011;44942;48.936;8.260;2023-10-19T04:21:49;5.22;;;2.85;;
59161;SDS011;44942;48.936;8.260;2023-10-19T04:26:50;3.03;;;2.70;;
59161;SDS011;44942;48.936;8.260;2023-10-19T04:31:51;4.17;;;2.70;;
59161;SDS011;44942;48.936;8.260;2023-10-19T04:36:54;7.72;;;2.70;;
59161;SDS011;44942;48.936;8.260;2023-10-19T04:41:57;6.97;;;2.75;;
59161;SDS011;44942;48.936;8.260;2023-10-19T04:46:58;3.03;;;2.60;;
59161;SDS011;44942;48.936;8.260;2023-10-19T04:51:58;3.40;;;2.57;;
59161;SDS011;44942;48.936;8.260;2023-10-19T04:56:59;6.00;;;2.77;;
59161;SDS011;44942;48.936;8.260;2023-10-19T05:02:00;3.45;;;2.70;;
59161;SDS011;44942;48.936;8.260;2023-10-19T05:07:01;9.50;;;2.30;;
59161;SDS011;44942;48.936;8.260;2023-10-19T05:12:03;3.25;;;2.38;;
59161;SDS011;44942;48.936;8.260;2023-10-19T05:17:04;3.47;;;2.60;;
59161;SDS011;44942;48.936;8.260;2023-10-19T05:22:06;5.03;;;2.67;;
59161;SDS011;44942;48.936;8.260;2023-10-19T05:27:07;6.25;;;2.90;;
59161;SDS011;44942;48.936;8.260;2023-10-19T05:32:09;4.95;;;2.80;;
59161;SDS011;44942;48.936;8.260;2023-10-19T05:37:10;6.77;;;2.73;;
59161;SDS011;44942;48.936;8.260;2023-10-19T05:42:10;4.70;;;2.70;;
59161;SDS011;44942;48.936;8.260;2023-10-19T05:47:11;3.73;;;2.70;;
59161;SDS011;44942;48.936;8.260;2023-10-19T05:52:11;4.87;;;2.90;;
59161;SDS011;44942;48.936;8.260;2023-10-19T05:57:12;4.87;;;2.80;;
59161;SDS011;44942;48.936;8.260;2023-10-19T06:02:12;3.60;;;2.63;;
59161;SDS011;44942;48.936;8.260;2023-10-19T06:07:13;5.03;;;2.83;;
59161;SDS011;44942;48.936;8.260;2023-10-19T06:12:13;3.53;;;2.70;;
59161;SDS011;44942;48.936;8.260;2023-10-19T06:17:14;4.20;;;2.67;;
59161;SDS011;44942;48.936;8.260;2023-10-19T06:22:19;3.38;;;2.83;;
59161;SDS011;44942;48.936;8.260;2023-10-19T06:27:19;3.90;;;2.80;;
59161;SDS011;44942;48.936;8.260;2023-10-19T06:32:20;3.90;;;2.77;;
59161;SDS011;44942;48.936;8.260;2023-10-19T06:37:21;4.53;;;2.47;;
59161;SDS011;44942;48.936;8.260;2023-10-19T06:42:21;3.63;;;2.60;;
59161;SDS011;44942;48.936;8.260;2023-10-19T06:47:22;5.50;;;2.73;;
59161;SDS011;44942;48.936;8.260;2023-10-19T06:52:23;3.50;;;2.70;;
59161;SDS011;44942;48.936;8.260;2023-10-19T06:57:23;3.80;;;2.77;;
59161;SDS011;44942;48.936;8.260;2023-10-19T07:02:24;5.37;;;2.70;;
59161;SDS011;44942;48.936;8.260;2023-10-19T07:07:26;19.95;;;3.65;;
59161;SDS011;44942;48.936;8.260;2023-10-19T07:12:27;7.67;;;2.60;;
59161;SDS011;44942;48.936;8.260;2023-10-19T07:17:27;7.87;;;3.00;;
59161;SDS011;44942;48.936;8.260;2023-10-19T07:22:28;11.00;;;3.00;;
59161;SDS011;44942;48.936;8.260;2023-10-19T07:27:29;7.57;;;3.00;;
59161;SDS011;44942;48.936;8.260;2023-10-19T07:32:29;4.37;;;2.60;;
59161;SDS011;44942;48.936;8.260;2023-10-19T07:37:30;8.50;;;2.70;;
59161;SDS011;44942;48.936;8.260;2023-10-19T07:42:31;10.77;;;3.05;;
59161;SDS011;44942;48.936;8.260;2023-10-19T07:47:34;12.05;;;3.15;;
59161;SDS011;44942;48.936;8.260;2023-10-19T07:52:35;14.13;;;3.20;;
59161;SDS011;44942;48.936;8.260;2023-10-19T07:57:36;13.27;;;2.93;;
59161;SDS011;44942;48.936;8.260;2023-10-19T08:02:36;7.00;;;2.88;;
59161;SDS011;44942;48.936;8.260;2023-10-19T08:12:47;6.72;;;3.00;;
59161;SDS011;44942;48.936;8.260;2023-10-19T08:17:50;8.35;;;3.05;;
59161;SDS011;44942;48.936;8.260;2023-10-19T08:22:54;9.70;;;2.88;;
59161;SDS011;44942;48.936;8.260;2023-10-19T08:27:56;5.72;;;2.60;;
59161;SDS011;44942;48.936;8.260;2023-10-19T08:32:57;4.10;;;2.70;;
59161;SDS011;44942;48.936;8.260;2023-10-19T08:37:58;12.25;;;8.43;;
59161;SDS011;44942;48.936;8.260;2023-10-19T08:42:59;12.67;;;9.00;;
59161;SDS011;44942;48.936;8.260;2023-10-19T08:48:00;14.90;;;8.30;;
59161;SDS011;44942;48.936;8.260;2023-10-19T08:53:02;11.60;;;8.70;;
59161;SDS011;44942;48.936;8.260;2023-10-19T08:58:05;11.82;;;8.65;;
59161;SDS011;44942;48.936;8.260;2023-10-19T09:03:05;11.37;;;9.30;;
59161;SDS011;44942;48.936;8.260;2023-10-19T09:08:08;12.10;;;9.27;;
59161;SDS011;44942;48.936;8.260;2023-10-19T09:13:14;10.48;;;8.55;;
59161;SDS011;44942;48.936;8.260;2023-10-19T09:18:23;11.95;;;8.13;;
59161;SDS011;44942;48.936;8.260;2023-10-19T09:23:27;13.32;;;8.02;;
59161;SDS011;44942;48.936;8.260;2023-10-19T09:28:29;16.67;;;8.18;;
59161;SDS011;44942;48.936;8.260;2023-10-19T09:33:33;13.52;;;7.80;;
59161;SDS011;44942;48.936;8.260;2023-10-19T09:38:34;9.95;;;7.90;;
59161;SDS011;44942;48.936;8.260;2023-10-19T09:43:40;11.82;;;8.15;;
59161;SDS011;44942;48.936;8.260;2023-10-19T09:48:46;10.63;;;7.10;;
59161;SDS011;44942;48.936;8.260;2023-10-19T09:53:49;9.27;;;5.82;;
59161;SDS011;44942;48.936;8.260;2023-10-19T09:59:02;9.00;;;5.00;;
59161;SDS011;44942;48.936;8.260;2023-10-19T10:04:07;10.05;;;5.03;;
59161;SDS011;44942;48.936;8.260;2023-10-19T10:09:31;8.98;;;5.03;;
59161;SDS011;44942;48.936;8.260;2023-10-19T10:15:00;6.47;;;4.18;;
59161;SDS011;44942;48.936;8.260;2023-10-19T10:25:27;5.18;;;3.50;;
59161;SDS011;44942;48.936;8.260;2023-10-19T10:30:28;6.82;;;3.85;;
59161;SDS011;44942;48.936;8.260;2023-10-19T10:40:44;7.35;;;3.70;;
59161;SDS011;44942;48.936;8.260;2023-10-19T10:45:47;6.97;;;3.33;;
59161;SDS011;44942;48.936;8.260;2023-10-19T10:50:48;4.43;;;3.50;;
59161;SDS011;44942;48.936;8.260;2023-10-19T10:55:49;5.03;;;3.15;;
59161;SDS011;44942;48.936;8.260;2023-10-19T11:00:50;7.68;;;3.75;;
59161;SDS011;44942;48.936;8.260;2023-10-19T11:05:51;5.75;;;3.40;;
59161;SDS011;44942;48.936;8.260;2023-10-19T11:10:52;8.80;;;3.27;;
59161;SDS011;44942;48.936;8.260;2023-10-19T11:15:53;5.93;;;3.20;;
59161;SDS011;44942;48.936;8.260;2023-10-19T11:20:56;5.15;;;3.28;;
59161;SDS011;44942;48.936;8.260;2023-10-19T11:25:59;4.63;;;3.15;;
59161;SDS011;44942;48.936;8.260;2023-10-19T11:31:12;5.22;;;3.20;;
59161;SDS011;44942;48.936;8.260;2023-10-19T11:41:15;8.65;;;4.60;;
59161;SDS011;44942;48.936;8.260;2023-10-19T11:46:16;12.38;;;8.40;;
59161;SDS011;44942;48.936;8.260;2023-10-19T11:56:18;13.23;;;8.73;;
59161;SDS011;44942;48.936;8.260;2023-10-19T12:01:20;12.65;;;8.85;;
59161;SDS011;44942;48.936;8.260;2023-10-19T12:06:21;12.37;;;9.20;;
59161;SDS011;44942;48.936;8.260;2023-10-19T12:11:23;12.07;;;8.65;;
59161;SDS011;44942;48.936;8.260;2023-10-19T12:16:24;12.40;;;9.00;;
59161;SDS011;44942;48.936;8.260;2023-10-19T12:21:24;12.33;;;10.07;;
59161;SDS011;44942;48.936;8.260;2023-10-19T12:26:27;15.50;;;10.00;;
59161;SDS011;44942;48.936;8.260;2023-10-19T12:31:29;37.80;;;9.30;;
59161;SDS011;44942;48.936;8.260;2023-10-19T12:36:30;11.47;;;8.40;;
59161;SDS011;44942;48.936;8.260;2023-10-19T12:41:30;16.87;;;9.40;;
59161;SDS011;44942;48.936;8.260;2023-10-19T12:46:31;12.57;;;8.60;;
59161;SDS011;44942;48.936;8.260;2023-10-19T12:51:35;12.93;;;8.50;;
59161;SDS011;44942;48.936;8.260;2023-10-19T12:56:36;13.60;;;8.20;;
59161;SDS011;44942;48.936;8.260;2023-10-19T13:01:39;11.05;;;7.57;;
59161;SDS011;44942;48.936;8.260;2023-10-19T13:06:40;10.88;;;7.75;;
59161;SDS011;44942;48.936;8.260;2023-10-19T13:11:40;9.75;;;7.32;;
59161;SDS011;44942;48.936;8.260;2023-10-19T13:16:45;8.43;;;7.07;;
59161;SDS011;44942;48.936;8.260;2023-10-19T13:21:46;11.33;;;7.37;;
59161;SDS011;44942;48.936;8.260;2023-10-19T13:26:50;11.68;;;7.40;;
59161;SDS011;44942;48.936;8.260;2023-10-19T13:31:51;12.55;;;7.00;;
59161;SDS011;44942;48.936;8.260;2023-10-19T13:36:52;9.68;;;7.78;;
59161;SDS011;44942;48.936;8.260;2023-10-19T13:41:52;15.83;;;7.97;;
59161;SDS011;44942;48.936;8.260;2023-10-19T13:46:53;13.00;;;7.60;;
59161;SDS011;44942;48.936;8.260;2023-10-19T13:51:54;11.27;;;8.13;;
59161;SDS011;44942;48.936;8.260;2023-10-19T13:56:54;12.47;;;9.03;;
59161;SDS011;44942;48.936;8.260;2023-10-19T14:01:55;14.47;;;9.37;;
59161;SDS011;44942;48.936;8.260;2023-10-19T14:06:55;12.57;;;9.30;;
59161;SDS011;44942;48.936;8.260;2023-10-19T14:11:56;9.73;;;8.23;;
59161;SDS011;44942;48.936;8.260;2023-10-19T14:16:57;13.18;;;9.75;;
59161;SDS011;44942;48.936;8.260;2023-10-19T14:21:58;11.80;;;8.03;;
59161;SDS011;44942;48.936;8.260;2023-10-19T14:26:58;8.17;;;6.90;;
59161;SDS011;44942;48.936;8.260;2023-10-19T14:32:00;9.30;;;6.60;;
59161;SDS011;44942;48.936;8.260;2023-10-19T14:37:03;9.93;;;6.80;;
59161;SDS011;44942;48.936;8.260;2023-10-19T14:42:04;8.23;;;6.50;;
59161;SDS011;44942;48.936;8.260;2023-10-19T14:47:05;13.13;;;6.47;;
59161;SDS011;44942;48.936;8.260;2023-10-19T14:52:06;12.98;;;8.82;;
59161;SDS011;44942;48.936;8.260;2023-10-19T14:57:06;22.67;;;17.23;;
59161;SDS011;44942;48.936;8.260;2023-10-19T15:02:08;17.08;;;13.90;;
59161;SDS011;44942;48.936;8.260;2023-10-19T15:07:12;11.90;;;10.15;;
59161;SDS011;44942;48.936;8.260;2023-10-19T15:12:12;14.47;;;8.73;;
59161;SDS011;44942;48.936;8.260;2023-10-19T15:17:13;16.00;;;11.20;;
59161;SDS011;44942;48.936;8.260;2023-10-19T15:22:13;13.77;;;10.00;;
59161;SDS011;44942;48.936;8.260;2023-10-19T15:27:16;10.95;;;8.63;;
59161;SDS011;44942;48.936;8.260;2023-10-19T15:32:18;12.98;;;7.47;;
59161;SDS011;44942;48.936;8.260;2023-10-19T15:37:20;11.10;;;8.07;;
59161;SDS011;44942;48.936;8.260;2023-10-19T15:42:22;9.88;;;7.50;;
59161;SDS011;44942;48.936;8.260;2023-10-19T15:47:23;7.70;;;6.90;;
59161;SDS011;44942;48.936;8.260;2023-10-19T15:52:24;22.77;;;6.80;;
59161;SDS011;44942;48.936;8.260;2023-10-19T15:57:28;11.88;;;6.20;;
59161;SDS011;44942;48.936;8.260;2023-10-19T16:02:31;11.38;;;6.10;;
59161;SDS011;44942;48.936;8.260;2023-10-19T16:07:32;7.07;;;5.50;;
59161;SDS011;44942;48.936;8.260;2023-10-19T16:12:33;8.45;;;5.35;;
59161;SDS011;44942;48.936;8.260;2023-10-19T16:17:34;7.70;;;5.40;;
59161;SDS011;44942;48.936;8.260;2023-10-19T16:22:43;7.68;;;5.30;;
59161;SDS011;44942;48.936;8.260;2023-10-19T16:27:43;46.83;;;6.80;;
59161;SDS011;44942;48.936;8.260;2023-10-19T16:32:44;15.27;;;6.23;;
59161;SDS011;44942;48.936;8.260;2023-10-19T16:37:45;20.60;;;5.80;;
59161;SDS011;44942;48.936;8.260;2023-10-19T16:42:48;11.43;;;6.05;;
59161;SDS011;44942;48.936;8.260;2023-10-19T16:47:48;11.83;;;5.50;;
59161;SDS011;44942;48.936;8.260;2023-10-19T16:52:49;9.07;;;5.40;;
59161;SDS011;44942;48.936;8.260;2023-10-19T16:57:49;12.33;;;5.77;;
59161;SDS011;44942;48.936;8.260;2023-10-19T17:02:50;10.48;;;6.22;;
59161;SDS011;44942;48.936;8.260;2023-10-19T17:07:50;12.60;;;5.73;;
59161;SDS011;44942;48.936;8.260;2023-10-19T17:12:51;12.15;;;5.00;;
59161;SDS011;44942;48.936;8.260;2023-10-19T17:17:52;9.77;;;5.60;;
59161;SDS011;44942;48.936;8.260;2023-10-19T17:22:53;11.85;;;5.68;;
59161;SDS011;44942;48.936;8.260;2023-10-19T17:27:54;8.02;;;4.70;;
59161;SDS011;44942;48.936;8.260;2023-10-19T17:32:55;9.40;;;5.22;;
59161;SDS011;44942;48.936;8.260;2023-10-19T17:37:58;7.10;;;4.82;;
59161;SDS011;44942;48.936;8.260;2023-10-19T17:42:58;8.27;;;5.20;;
59161;SDS011;44942;48.936;8.260;2023-10-19T17:47:59;9.73;;;5.20;;
59161;SDS011;44942;48.936;8.260;2023-10-19T17:53:00;10.90;;;5.37;;
59161;SDS011;44942;48.936;8.260;2023-10-19T17:58:00;14.75;;;5.13;;
59161;SDS011;44942;48.936;8.260;2023-10-19T18:03:01;9.63;;;5.00;;
59161;SDS011;44942;48.936;8.260;2023-10-19T18:08:02;7.00;;;4.75;;
59161;SDS011;44942;48.936;8.260;2023-10-19T18:13:02;6.10;;;4.40;;
59161;SDS011;44942;48.936;8.260;2023-10-19T18:18:05;5.82;;;4.35;;
59161;SDS011;44942;48.936;8.260;2023-10-19T18:23:06;8.30;;;5.40;;
59161;SDS011;44942;48.936;8.260;2023-10-19T18:28:07;6.33;;;5.30;;
59161;SDS011;44942;48.936;8.260;2023-10-19T18:33:08;7.55;;;5.18;;
59161;SDS011;44942;48.936;8.260;2023-10-19T18:38:08;7.40;;;4.57;;
59161;SDS011;44942;48.936;8.260;2023-10-19T18:43:09;8.67;;;4.80;;
59161;SDS011;44942;48.936;8.260;2023-10-19T18:48:09;8.93;;;4.93;;
59161;SDS011;44942;48.936;8.260;2023-10-19T18:53:10;6.00;;;4.40;;
59161;SDS011;44942;48.936;8.260;2023-10-19T18:58:11;7.00;;;4.60;;
59161;SDS011;44942;48.936;8.260;2023-10-19T19:03:12;5.70;;;4.20;;
59161;SDS011;44942;48.936;8.260;2023-10-19T19:08:13;6.50;;;4.90;;
59161;SDS011;44942;48.936;8.260;2023-10-19T19:13:15;5.53;;;4.47;;
59161;SDS011;44942;48.936;8.260;2023-10-19T19:18:16;7.38;;;4.60;;
59161;SDS011;44942;48.936;8.260;2023-10-19T19:23:16;8.65;;;4.65;;
59161;SDS011;44942;48.936;8.260;2023-10-19T19:28:17;6.60;;;4.43;;
59161;SDS011;44942;48.936;8.260;2023-10-19T19:33:18;5.88;;;4.28;;
59161;SDS011;44942;48.936;8.260;2023-10-19T19:38:19;6.25;;;4.10;;
59161;SDS011;44942;48.936;8.260;2023-10-19T19:43:21;5.88;;;4.30;;
59161;SDS011;44942;48.936;8.260;2023-10-19T19:48:22;6.07;;;4.50;;
59161;SDS011;44942;48.936;8.260;2023-10-19T19:53:23;4.88;;;4.30;;
59161;SDS011;44942;48.936;8.260;2023-10-19T19:58:24;8.43;;;4.10;;
59161;SDS011;44942;48.936;8.260;2023-10-19T20:08:25;5.33;;;3.83;;
59161;SDS011;44942;48.936;8.260;2023-10-19T20:13:26;7.15;;;3.60;;
59161;SDS011;44942;48.936;8.260;2023-10-19T20:18:27;6.75;;;4.25;;
59161;SDS011;44942;48.936;8.260;2023-10-19T20:23:28;4.47;;;3.87;;
59161;SDS011;44942;48.936;8.260;2023-10-19T20:28:28;6.07;;;4.10;;
59161;SDS011;44942;48.936;8.260;2023-10-19T20:33:29;6.70;;;4.00;;
59161;SDS011;44942;48.936;8.260;2023-10-19T20:38:29;5.57;;;3.90;;
59161;SDS011;44942;48.936;8.260;2023-10-19T20:43:30;5.70;;;3.90;;
59161;SDS011;44942;48.936;8.260;2023-10-19T20:48:31;5.73;;;3.90;;
59161;SDS011;44942;48.936;8.260;2023-10-19T20:53:32;9.95;;;3.72;;
59161;SDS011;44942;48.936;8.260;2023-10-19T20:58:33;4.93;;;3.42;;
59161;SDS011;44942;48.936;8.260;2023-10-19T21:03:37;8.40;;;3.50;;
59161;SDS011;44942;48.936;8.260;2023-10-19T21:08:38;4.32;;;3.70;;
59161;SDS011;44942;48.936;8.260;2023-10-19T21:18:40;4.67;;;3.60;;
59161;SDS011;44942;48.936;8.260;2023-10-19T21:23:41;4.30;;;3.38;;
59161;SDS011;44942;48.936;8.260;2023-10-19T21:28:41;4.67;;;3.73;;
59161;SDS011;44942;48.936;8.260;2023-10-19T21:33:42;4.63;;;3.53;;
59161;SDS011;44942;48.936;8.260;2023-10-19T21:38:43;4.77;;;3.83;;
59161;SDS011;44942;48.936;8.260;2023-10-19T21:43:44;5.22;;;3.63;;
59161;SDS011;44942;48.936;8.260;2023-10-19T21:48:45;6.40;;;3.50;;
59161;SDS011;44942;48.936;8.260;2023-10-19T21:53:46;5.57;;;3.20;;
59161;SDS011;44942;48.936;8.260;2023-10-19T21:58:46;7.57;;;3.47;;
59161;SDS011;44942;48.936;8.260;2023-10-19T22:03:47;6.60;;;3.30;;
59161;SDS011;44942;48.936;8.260;2023-10-19T22:08:47;4.83;;;3.20;;
59161;SDS011;44942;48.936;8.260;2023-10-19T22:13:48;4.47;;;3.30;;
59161;SDS011;44942;48.936;8.260;2023-10-19T22:18:50;3.40;;;2.95;;
59161;SDS011;44942;48.936;8.260;2023-10-19T22:23:52;4.45;;;3.30;;
59161;SDS011;44942;48.936;8.260;2023-10-19T22:28:53;3.53;;;3.10;;
59161;SDS011;44942;48.936;8.260;2023-10-19T22:33:53;3.93;;;3.27;;
59161;SDS011;44942;48.936;8.260;2023-10-19T22:38:54;4.25;;;3.45;;
59161;SDS011;44942;48.936;8.260;2023-10-19T22:43:55;3.73;;;3.33;;
59161;SDS011;44942;48.936;8.260;2023-10-19T22:48:56;3.85;;;3.10;;
59161;SDS011;44942;48.936;8.260;2023-10-19T22:53:58;4.03;;;3.10;;
59161;SDS011;44942;48.936;8.260;2023-10-19T22:58:58;3.78;;;3.28;;
59161;SDS011;44942;48.936;8.260;2023-10-19T23:03:59;4.20;;;3.17;;
59161;SDS011;44942;48.936;8.260;2023-10-19T23:14:02;3.47;;;3.17;;
59161;SDS011;44942;48.936;8.260;2023-10-19T23:19:03;3.83;;;3.08;;
59161;SDS011;44942;48.936;8.260;2023-10-19T23:24:04;3.33;;;3.00;;
59161;SDS011;44942;48.936;8.260;2023-10-19T23:34:10;3.10;;;2.80;;
59161;SDS011;44942;48.936;8.260;2023-10-19T23:39:12;3.78;;;2.90;;
59161;SDS011;44942;48.936;8.260;2023-10-19T23:44:21;3.35;;;2.90;;
59161;SDS011;44942;48.936;8.260;2023-10-19T23:49:23;3.85;;;2.92;;
59161;SDS011;44942;48.936;8.260;2023-10-19T23:54:25;3.70;;;2.97;;
59161;SDS011;44942;48.936;8.260;2023-10-19T23:59:26;2.97;;;2.77;;
